sensor_id;sensor_type;location;lat;lon;timestamp;P1;durP1;ratioP1;P2;durP2;ratioP2
58918;SDS011;44704;50.122;19.932;2022-07-10T00:00:10;13.50;;;6.90;;
58918;SDS011;44704;50.122;19.932;2022-07-10T00:03:01;10.10;;;6.00;;
58918;SDS011;44704;50.122;19.932;2022-07-10T00:05:29;11.20;;;6.30;;
58918;SDS011;44704;50.122;19.932;2022-07-10T00:07:56;8.60;;;6.20;;
58918;SDS011;44704;50.122;19.932;2022-07-10T00:10:24;8.80;;;6.30;;
58918;SDS011;44704;50.122;19.932;2022-07-10T00:12:51;10.40;;;6.70;;
58918;SDS011;44704;50.122;19.932;2022-07-10T00:15:18;8.20;;;5.30;;
58918;SDS011;44704;50.122;19.932;2022-07-10T00:17:45;8.00;;;5.30;;
58918;SDS011;44704;50.122;19.932;2022-07-10T00:20:13;10.90;;;5.10;;
58918;SDS011;44704;50.122;19.932;2022-07-10T00:22:40;6.40;;;4.60;;
58918;SDS011;44704;50.122;19.932;2022-07-10T00:25:09;7.20;;;5.20;;
58918;SDS011;44704;50.122;19.932;2022-07-10T00:27:38;9.30;;;5.30;;
58918;SDS011;44704;50.122;19.932;2022-07-10T00:30:09;10.80;;;4.90;;
58918;SDS011;44704;50.122;19.932;2022-07-10T00:32:37;8.30;;;5.30;;
58918;SDS011;44704;50.122;19.932;2022-07-10T00:35:05;13.50;;;5.50;;
58918;SDS011;44704;50.122;19.932;2022-07-10T00:37:32;8.10;;;5.00;;
58918;SDS011;44704;50.122;19.932;2022-07-10T00:40:00;10.60;;;5.80;;
58918;SDS011;44704;50.122;19.932;2022-07-10T00:42:27;7.60;;;4.90;;
58918;SDS011;44704;50.122;19.932;2022-07-10T00:44:54;7.80;;;5.10;;
58918;SDS011;44704;50.122;19.932;2022-07-10T00:47:21;10.80;;;4.80;;
58918;SDS011;44704;50.122;19.932;2022-07-10T00:49:48;7.40;;;5.80;;
58918;SDS011;44704;50.122;19.932;2022-07-10T00:52:16;5.90;;;4.90;;
58918;SDS011;44704;50.122;19.932;2022-07-10T00:54:45;7.40;;;4.80;;
58918;SDS011;44704;50.122;19.932;2022-07-10T00:57:14;6.40;;;4.90;;
58918;SDS011;44704;50.122;19.932;2022-07-10T00:59:42;8.00;;;5.70;;
58918;SDS011;44704;50.122;19.932;2022-07-10T01:02:10;7.00;;;5.90;;
58918;SDS011;44704;50.122;19.932;2022-07-10T01:04:37;7.80;;;5.40;;
58918;SDS011;44704;50.122;19.932;2022-07-10T01:07:04;12.70;;;5.90;;
58918;SDS011;44704;50.122;19.932;2022-07-10T01:09:32;9.70;;;5.60;;
58918;SDS011;44704;50.122;19.932;2022-07-10T01:12:00;12.90;;;6.40;;
58918;SDS011;44704;50.122;19.932;2022-07-10T01:14:28;8.00;;;5.70;;
58918;SDS011;44704;50.122;19.932;2022-07-10T01:17:00;10.10;;;6.50;;
58918;SDS011;44704;50.122;19.932;2022-07-10T01:19:26;10.10;;;6.50;;
58918;SDS011;44704;50.122;19.932;2022-07-10T01:21:53;10.50;;;6.90;;
58918;SDS011;44704;50.122;19.932;2022-07-10T01:24:20;7.70;;;6.80;;
58918;SDS011;44704;50.122;19.932;2022-07-10T01:26:48;10.30;;;6.50;;
58918;SDS011;44704;50.122;19.932;2022-07-10T01:29:15;11.50;;;5.90;;
58918;SDS011;44704;50.122;19.932;2022-07-10T01:31:42;8.80;;;6.00;;
58918;SDS011;44704;50.122;19.932;2022-07-10T01:34:09;10.70;;;6.80;;
58918;SDS011;44704;50.122;19.932;2022-07-10T01:36:36;10.70;;;6.60;;
58918;SDS011;44704;50.122;19.932;2022-07-10T01:39:04;11.90;;;6.90;;
58918;SDS011;44704;50.122;19.932;2022-07-10T01:41:32;8.60;;;6.30;;
58918;SDS011;44704;50.122;19.932;2022-07-10T01:44:00;8.20;;;6.10;;
58918;SDS011;44704;50.122;19.932;2022-07-10T01:46:27;9.80;;;6.50;;
58918;SDS011;44704;50.122;19.932;2022-07-10T01:48:54;7.70;;;6.30;;
58918;SDS011;44704;50.122;19.932;2022-07-10T01:51:21;11.50;;;6.70;;
58918;SDS011;44704;50.122;19.932;2022-07-10T01:53:48;13.00;;;6.50;;
58918;SDS011;44704;50.122;19.932;2022-07-10T01:56:15;10.00;;;6.30;;
58918;SDS011;44704;50.122;19.932;2022-07-10T01:58:43;11.50;;;6.50;;
58918;SDS011;44704;50.122;19.932;2022-07-10T02:01:10;10.30;;;6.90;;
58918;SDS011;44704;50.122;19.932;2022-07-10T02:03:37;9.70;;;6.70;;
58918;SDS011;44704;50.122;19.932;2022-07-10T02:06:19;15.30;;;7.30;;
58918;SDS011;44704;50.122;19.932;2022-07-10T02:08:46;9.60;;;7.10;;
58918;SDS011;44704;50.122;19.932;2022-07-10T02:11:12;10.60;;;7.00;;
58918;SDS011;44704;50.122;19.932;2022-07-10T02:13:39;9.10;;;6.20;;
58918;SDS011;44704;50.122;19.932;2022-07-10T02:16:06;9.20;;;6.90;;
58918;SDS011;44704;50.122;19.932;2022-07-10T02:18:33;8.20;;;6.30;;
58918;SDS011;44704;50.122;19.932;2022-07-10T02:21:00;9.60;;;7.00;;
58918;SDS011;44704;50.122;19.932;2022-07-10T02:23:26;11.10;;;7.10;;
58918;SDS011;44704;50.122;19.932;2022-07-10T02:25:54;12.50;;;7.10;;
58918;SDS011;44704;50.122;19.932;2022-07-10T02:28:21;8.90;;;6.30;;
58918;SDS011;44704;50.122;19.932;2022-07-10T02:30:48;7.90;;;6.20;;
58918;SDS011;44704;50.122;19.932;2022-07-10T02:33:15;10.40;;;6.50;;
58918;SDS011;44704;50.122;19.932;2022-07-10T02:35:42;8.80;;;7.10;;
58918;SDS011;44704;50.122;19.932;2022-07-10T02:38:08;10.20;;;6.90;;
58918;SDS011;44704;50.122;19.932;2022-07-10T02:40:35;8.70;;;6.60;;
58918;SDS011;44704;50.122;19.932;2022-07-10T02:43:02;12.10;;;7.50;;
58918;SDS011;44704;50.122;19.932;2022-07-10T02:45:28;8.40;;;6.50;;
58918;SDS011;44704;50.122;19.932;2022-07-10T02:47:55;11.30;;;7.60;;
58918;SDS011;44704;50.122;19.932;2022-07-10T02:50:22;9.90;;;7.80;;
58918;SDS011;44704;50.122;19.932;2022-07-10T02:52:49;9.70;;;7.90;;
58918;SDS011;44704;50.122;19.932;2022-07-10T02:55:17;11.10;;;7.30;;
58918;SDS011;44704;50.122;19.932;2022-07-10T02:57:44;12.50;;;6.80;;
58918;SDS011;44704;50.122;19.932;2022-07-10T03:00:10;11.60;;;7.30;;
58918;SDS011;44704;50.122;19.932;2022-07-10T03:02:38;10.70;;;7.70;;
58918;SDS011;44704;50.122;19.932;2022-07-10T03:05:05;14.10;;;8.30;;
58918;SDS011;44704;50.122;19.932;2022-07-10T03:07:33;13.40;;;8.00;;
58918;SDS011;44704;50.122;19.932;2022-07-10T03:09:59;12.90;;;9.20;;
58918;SDS011;44704;50.122;19.932;2022-07-10T03:12:26;12.00;;;7.60;;
58918;SDS011;44704;50.122;19.932;2022-07-10T03:14:53;12.10;;;8.20;;
58918;SDS011;44704;50.122;19.932;2022-07-10T03:17:19;11.70;;;8.20;;
58918;SDS011;44704;50.122;19.932;2022-07-10T03:19:46;11.00;;;8.30;;
58918;SDS011;44704;50.122;19.932;2022-07-10T03:22:13;12.50;;;8.30;;
58918;SDS011;44704;50.122;19.932;2022-07-10T03:24:40;11.80;;;8.00;;
58918;SDS011;44704;50.122;19.932;2022-07-10T03:27:08;11.50;;;7.60;;
58918;SDS011;44704;50.122;19.932;2022-07-10T03:29:36;10.40;;;8.30;;
58918;SDS011;44704;50.122;19.932;2022-07-10T03:32:06;12.60;;;8.50;;
58918;SDS011;44704;50.122;19.932;2022-07-10T03:34:33;15.00;;;9.00;;
58918;SDS011;44704;50.122;19.932;2022-07-10T03:37:00;12.70;;;8.30;;
58918;SDS011;44704;50.122;19.932;2022-07-10T03:39:27;12.00;;;8.30;;
58918;SDS011;44704;50.122;19.932;2022-07-10T03:41:53;9.40;;;8.00;;
58918;SDS011;44704;50.122;19.932;2022-07-10T03:44:20;11.90;;;8.90;;
58918;SDS011;44704;50.122;19.932;2022-07-10T03:46:47;12.10;;;8.80;;
58918;SDS011;44704;50.122;19.932;2022-07-10T03:49:18;13.10;;;9.10;;
58918;SDS011;44704;50.122;19.932;2022-07-10T03:51:47;11.00;;;8.50;;
58918;SDS011;44704;50.122;19.932;2022-07-10T03:54:18;10.70;;;8.30;;
58918;SDS011;44704;50.122;19.932;2022-07-10T03:56:47;15.10;;;9.20;;
58918;SDS011;44704;50.122;19.932;2022-07-10T03:59:33;11.90;;;8.80;;
58918;SDS011;44704;50.122;19.932;2022-07-10T04:02:00;12.50;;;8.80;;
58918;SDS011;44704;50.122;19.932;2022-07-10T04:04:26;11.00;;;8.10;;
58918;SDS011;44704;50.122;19.932;2022-07-10T04:06:53;11.90;;;9.00;;
58918;SDS011;44704;50.122;19.932;2022-07-10T04:09:21;11.50;;;8.40;;
58918;SDS011;44704;50.122;19.932;2022-07-10T04:11:51;13.20;;;8.50;;
58918;SDS011;44704;50.122;19.932;2022-07-10T04:14:19;11.80;;;8.10;;
58918;SDS011;44704;50.122;19.932;2022-07-10T04:16:46;10.70;;;8.30;;
58918;SDS011;44704;50.122;19.932;2022-07-10T04:19:14;11.40;;;8.70;;
58918;SDS011;44704;50.122;19.932;2022-07-10T04:21:42;13.70;;;8.90;;
58918;SDS011;44704;50.122;19.932;2022-07-10T04:24:08;12.00;;;8.60;;
58918;SDS011;44704;50.122;19.932;2022-07-10T04:26:35;10.90;;;8.70;;
58918;SDS011;44704;50.122;19.932;2022-07-10T04:29:02;14.10;;;8.90;;
58918;SDS011;44704;50.122;19.932;2022-07-10T04:31:31;15.60;;;9.00;;
58918;SDS011;44704;50.122;19.932;2022-07-10T04:33:57;14.80;;;9.30;;
58918;SDS011;44704;50.122;19.932;2022-07-10T04:36:27;12.80;;;8.80;;
58918;SDS011;44704;50.122;19.932;2022-07-10T04:41:20;12.70;;;8.90;;
58918;SDS011;44704;50.122;19.932;2022-07-10T04:43:47;10.80;;;8.90;;
58918;SDS011;44704;50.122;19.932;2022-07-10T04:46:14;12.40;;;9.00;;
58918;SDS011;44704;50.122;19.932;2022-07-10T04:48:40;13.10;;;9.60;;
58918;SDS011;44704;50.122;19.932;2022-07-10T04:51:09;13.20;;;8.60;;
58918;SDS011;44704;50.122;19.932;2022-07-10T04:53:36;13.20;;;8.80;;
58918;SDS011;44704;50.122;19.932;2022-07-10T04:56:04;14.40;;;8.80;;
58918;SDS011;44704;50.122;19.932;2022-07-10T04:58:31;11.50;;;8.00;;
58918;SDS011;44704;50.122;19.932;2022-07-10T05:00:57;12.50;;;8.50;;
58918;SDS011;44704;50.122;19.932;2022-07-10T05:03:25;11.00;;;8.40;;
58918;SDS011;44704;50.122;19.932;2022-07-10T05:05:51;16.80;;;10.40;;
58918;SDS011;44704;50.122;19.932;2022-07-10T05:08:19;14.40;;;9.70;;
58918;SDS011;44704;50.122;19.932;2022-07-10T05:13:15;13.10;;;9.10;;
58918;SDS011;44704;50.122;19.932;2022-07-10T05:15:45;12.10;;;9.10;;
58918;SDS011;44704;50.122;19.932;2022-07-10T05:18:13;15.40;;;9.80;;
58918;SDS011;44704;50.122;19.932;2022-07-10T05:20:46;14.30;;;9.80;;
58918;SDS011;44704;50.122;19.932;2022-07-10T05:23:17;11.80;;;8.80;;
58918;SDS011;44704;50.122;19.932;2022-07-10T05:25:44;13.50;;;10.80;;
58918;SDS011;44704;50.122;19.932;2022-07-10T05:28:11;14.00;;;10.40;;
58918;SDS011;44704;50.122;19.932;2022-07-10T05:33:07;11.60;;;7.90;;
58918;SDS011;44704;50.122;19.932;2022-07-10T05:35:34;11.80;;;8.70;;
58918;SDS011;44704;50.122;19.932;2022-07-10T05:38:01;11.20;;;8.30;;
58918;SDS011;44704;50.122;19.932;2022-07-10T05:40:28;10.20;;;7.60;;
58918;SDS011;44704;50.122;19.932;2022-07-10T05:42:55;7.40;;;6.70;;
58918;SDS011;44704;50.122;19.932;2022-07-10T05:45:22;9.10;;;6.00;;
58918;SDS011;44704;50.122;19.932;2022-07-10T05:47:49;7.50;;;5.80;;
58918;SDS011;44704;50.122;19.932;2022-07-10T05:50:19;4.90;;;4.20;;
58918;SDS011;44704;50.122;19.932;2022-07-10T05:52:46;5.30;;;4.10;;
58918;SDS011;44704;50.122;19.932;2022-07-10T05:55:15;6.60;;;4.10;;
58918;SDS011;44704;50.122;19.932;2022-07-10T05:57:42;4.80;;;4.00;;
58918;SDS011;44704;50.122;19.932;2022-07-10T06:00:11;4.00;;;3.70;;
58918;SDS011;44704;50.122;19.932;2022-07-10T06:02:38;4.90;;;4.30;;
58918;SDS011;44704;50.122;19.932;2022-07-10T06:05:07;4.80;;;4.30;;
58918;SDS011;44704;50.122;19.932;2022-07-10T06:07:35;5.80;;;4.60;;
58918;SDS011;44704;50.122;19.932;2022-07-10T06:10:02;4.90;;;4.00;;
58918;SDS011;44704;50.122;19.932;2022-07-10T06:12:33;4.10;;;3.70;;
58918;SDS011;44704;50.122;19.932;2022-07-10T06:15:00;3.90;;;3.50;;
58918;SDS011;44704;50.122;19.932;2022-07-10T06:17:31;3.30;;;3.00;;
58918;SDS011;44704;50.122;19.932;2022-07-10T06:19:58;3.90;;;3.30;;
58918;SDS011;44704;50.122;19.932;2022-07-10T06:22:28;3.70;;;3.10;;
58918;SDS011;44704;50.122;19.932;2022-07-10T06:24:58;5.10;;;2.60;;
58918;SDS011;44704;50.122;19.932;2022-07-10T06:27:33;2.40;;;2.20;;
58918;SDS011;44704;50.122;19.932;2022-07-10T06:30:03;3.00;;;2.30;;
58918;SDS011;44704;50.122;19.932;2022-07-10T06:32:33;2.50;;;2.30;;
58918;SDS011;44704;50.122;19.932;2022-07-10T06:35:03;2.60;;;2.40;;
58918;SDS011;44704;50.122;19.932;2022-07-10T06:37:37;2.60;;;2.20;;
58918;SDS011;44704;50.122;19.932;2022-07-10T06:40:04;2.90;;;1.80;;
58918;SDS011;44704;50.122;19.932;2022-07-10T06:42:43;2.20;;;1.90;;
58918;SDS011;44704;50.122;19.932;2022-07-10T06:45:11;1.80;;;1.70;;
58918;SDS011;44704;50.122;19.932;2022-07-10T06:47:40;2.30;;;1.80;;
58918;SDS011;44704;50.122;19.932;2022-07-10T06:50:22;1.90;;;1.70;;
58918;SDS011;44704;50.122;19.932;2022-07-10T06:52:50;1.80;;;1.70;;
58918;SDS011;44704;50.122;19.932;2022-07-10T06:55:22;1.90;;;1.50;;
58918;SDS011;44704;50.122;19.932;2022-07-10T06:57:50;2.20;;;2.00;;
58918;SDS011;44704;50.122;19.932;2022-07-10T07:00:18;1.80;;;1.70;;
58918;SDS011;44704;50.122;19.932;2022-07-10T07:02:45;3.00;;;1.60;;
58918;SDS011;44704;50.122;19.932;2022-07-10T07:05:12;2.50;;;1.50;;
58918;SDS011;44704;50.122;19.932;2022-07-10T07:07:43;1.90;;;1.30;;
58918;SDS011;44704;50.122;19.932;2022-07-10T07:10:10;2.70;;;1.40;;
58918;SDS011;44704;50.122;19.932;2022-07-10T07:12:38;3.10;;;1.40;;
58918;SDS011;44704;50.122;19.932;2022-07-10T07:15:05;2.50;;;1.20;;
58918;SDS011;44704;50.122;19.932;2022-07-10T07:17:33;2.90;;;1.30;;
58918;SDS011;44704;50.122;19.932;2022-07-10T07:20:27;1.30;;;1.10;;
58918;SDS011;44704;50.122;19.932;2022-07-10T07:23:11;3.10;;;0.90;;
58918;SDS011;44704;50.122;19.932;2022-07-10T07:25:39;3.30;;;1.50;;
58918;SDS011;44704;50.122;19.932;2022-07-10T07:28:08;2.30;;;1.30;;
58918;SDS011;44704;50.122;19.932;2022-07-10T07:30:41;2.00;;;1.10;;
58918;SDS011;44704;50.122;19.932;2022-07-10T07:33:09;1.50;;;1.20;;
58918;SDS011;44704;50.122;19.932;2022-07-10T07:35:36;2.40;;;1.20;;
58918;SDS011;44704;50.122;19.932;2022-07-10T07:38:03;1.60;;;1.20;;
58918;SDS011;44704;50.122;19.932;2022-07-10T07:40:32;2.30;;;1.20;;
58918;SDS011;44704;50.122;19.932;2022-07-10T07:42:59;1.30;;;1.20;;
58918;SDS011;44704;50.122;19.932;2022-07-10T07:45:27;3.90;;;1.30;;
58918;SDS011;44704;50.122;19.932;2022-07-10T07:47:57;2.50;;;1.00;;
58918;SDS011;44704;50.122;19.932;2022-07-10T07:50:32;2.70;;;1.40;;
58918;SDS011;44704;50.122;19.932;2022-07-10T07:53:00;2.40;;;1.40;;
58918;SDS011;44704;50.122;19.932;2022-07-10T07:55:29;4.80;;;1.50;;
58918;SDS011;44704;50.122;19.932;2022-07-10T07:57:57;3.40;;;1.60;;
58918;SDS011;44704;50.122;19.932;2022-07-10T08:00:25;3.90;;;1.60;;
58918;SDS011;44704;50.122;19.932;2022-07-10T08:02:54;4.30;;;1.20;;
58918;SDS011;44704;50.122;19.932;2022-07-10T08:05:22;4.80;;;1.40;;
58918;SDS011;44704;50.122;19.932;2022-07-10T08:07:51;3.50;;;1.50;;
58918;SDS011;44704;50.122;19.932;2022-07-10T08:10:21;2.40;;;1.40;;
58918;SDS011;44704;50.122;19.932;2022-07-10T08:12:50;3.10;;;1.20;;
58918;SDS011;44704;50.122;19.932;2022-07-10T08:15:18;1.90;;;1.60;;
58918;SDS011;44704;50.122;19.932;2022-07-10T08:17:48;2.70;;;1.20;;
58918;SDS011;44704;50.122;19.932;2022-07-10T08:20:17;2.00;;;1.40;;
58918;SDS011;44704;50.122;19.932;2022-07-10T08:22:44;1.90;;;1.10;;
58918;SDS011;44704;50.122;19.932;2022-07-10T08:25:12;2.50;;;0.90;;
58918;SDS011;44704;50.122;19.932;2022-07-10T08:27:40;2.20;;;1.10;;
58918;SDS011;44704;50.122;19.932;2022-07-10T08:30:08;1.30;;;0.80;;
58918;SDS011;44704;50.122;19.932;2022-07-10T08:32:36;3.50;;;1.10;;
58918;SDS011;44704;50.122;19.932;2022-07-10T08:35:05;2.40;;;1.00;;
58918;SDS011;44704;50.122;19.932;2022-07-10T08:37:37;2.50;;;0.80;;
58918;SDS011;44704;50.122;19.932;2022-07-10T08:40:06;1.40;;;0.80;;
58918;SDS011;44704;50.122;19.932;2022-07-10T08:42:37;2.30;;;0.80;;
58918;SDS011;44704;50.122;19.932;2022-07-10T08:45:04;3.00;;;1.00;;
58918;SDS011;44704;50.122;19.932;2022-07-10T08:50:03;3.10;;;1.00;;
58918;SDS011;44704;50.122;19.932;2022-07-10T08:52:34;1.60;;;1.00;;
58918;SDS011;44704;50.122;19.932;2022-07-10T08:55:12;5.50;;;1.00;;
58918;SDS011;44704;50.122;19.932;2022-07-10T08:57:41;2.00;;;0.90;;
58918;SDS011;44704;50.122;19.932;2022-07-10T09:00:10;2.00;;;1.10;;
58918;SDS011;44704;50.122;19.932;2022-07-10T09:02:37;2.30;;;1.10;;
58918;SDS011;44704;50.122;19.932;2022-07-10T09:05:04;3.20;;;0.70;;
58918;SDS011;44704;50.122;19.932;2022-07-10T09:07:35;1.70;;;0.80;;
58918;SDS011;44704;50.122;19.932;2022-07-10T09:10:06;1.70;;;0.60;;
58918;SDS011;44704;50.122;19.932;2022-07-10T09:13:08;5.00;;;1.00;;
58918;SDS011;44704;50.122;19.932;2022-07-10T09:16:19;3.60;;;0.90;;
58918;SDS011;44704;50.122;19.932;2022-07-10T09:19:18;2.10;;;0.60;;
58918;SDS011;44704;50.122;19.932;2022-07-10T09:21:47;2.90;;;0.70;;
58918;SDS011;44704;50.122;19.932;2022-07-10T09:24:23;2.60;;;0.80;;
58918;SDS011;44704;50.122;19.932;2022-07-10T09:29:27;3.60;;;0.80;;
58918;SDS011;44704;50.122;19.932;2022-07-10T09:31:56;2.40;;;0.80;;
58918;SDS011;44704;50.122;19.932;2022-07-10T09:34:39;2.70;;;0.60;;
58918;SDS011;44704;50.122;19.932;2022-07-10T09:40:14;1.80;;;0.60;;
58918;SDS011;44704;50.122;19.932;2022-07-10T09:42:42;1.10;;;0.60;;
58918;SDS011;44704;50.122;19.932;2022-07-10T09:50:39;4.00;;;0.70;;
58918;SDS011;44704;50.122;19.932;2022-07-10T09:53:07;4.20;;;0.60;;
58918;SDS011;44704;50.122;19.932;2022-07-10T09:55:39;2.30;;;0.70;;
58918;SDS011;44704;50.122;19.932;2022-07-10T09:58:08;4.50;;;0.60;;
58918;SDS011;44704;50.122;19.932;2022-07-10T10:00:36;1.90;;;0.50;;
58918;SDS011;44704;50.122;19.932;2022-07-10T10:03:10;1.40;;;0.50;;
58918;SDS011;44704;50.122;19.932;2022-07-10T10:05:45;1.90;;;0.60;;
58918;SDS011;44704;50.122;19.932;2022-07-10T10:11:18;3.30;;;0.70;;
58918;SDS011;44704;50.122;19.932;2022-07-10T10:13:49;2.80;;;0.70;;
58918;SDS011;44704;50.122;19.932;2022-07-10T10:16:17;2.10;;;0.60;;
58918;SDS011;44704;50.122;19.932;2022-07-10T10:18:46;0.70;;;0.60;;
58918;SDS011;44704;50.122;19.932;2022-07-10T10:21:28;6.20;;;0.80;;
58918;SDS011;44704;50.122;19.932;2022-07-10T10:23:55;0.80;;;0.50;;
58918;SDS011;44704;50.122;19.932;2022-07-10T10:26:22;1.20;;;0.70;;
58918;SDS011;44704;50.122;19.932;2022-07-10T10:28:53;1.90;;;0.50;;
58918;SDS011;44704;50.122;19.932;2022-07-10T10:31:28;3.80;;;0.70;;
58918;SDS011;44704;50.122;19.932;2022-07-10T10:33:58;5.00;;;0.70;;
58918;SDS011;44704;50.122;19.932;2022-07-10T10:39:03;2.50;;;0.70;;
58918;SDS011;44704;50.122;19.932;2022-07-10T10:41:46;1.10;;;0.50;;
58918;SDS011;44704;50.122;19.932;2022-07-10T10:44:49;3.20;;;0.70;;
58918;SDS011;44704;50.122;19.932;2022-07-10T10:47:57;2.20;;;0.40;;
58918;SDS011;44704;50.122;19.932;2022-07-10T10:53:26;2.70;;;0.60;;
58918;SDS011;44704;50.122;19.932;2022-07-10T10:58:38;2.50;;;0.40;;
58918;SDS011;44704;50.122;19.932;2022-07-10T11:09:42;1.20;;;0.50;;
58918;SDS011;44704;50.122;19.932;2022-07-10T11:12:09;2.50;;;0.60;;
58918;SDS011;44704;50.122;19.932;2022-07-10T11:14:39;5.10;;;0.80;;
58918;SDS011;44704;50.122;19.932;2022-07-10T11:17:11;1.80;;;0.60;;
58918;SDS011;44704;50.122;19.932;2022-07-10T11:19:39;3.80;;;0.90;;
58918;SDS011;44704;50.122;19.932;2022-07-10T11:30:54;3.10;;;0.50;;
58918;SDS011;44704;50.122;19.932;2022-07-10T11:33:43;2.40;;;0.50;;
58918;SDS011;44704;50.122;19.932;2022-07-10T11:36:13;2.70;;;0.60;;
58918;SDS011;44704;50.122;19.932;2022-07-10T11:38:42;2.20;;;0.60;;
58918;SDS011;44704;50.122;19.932;2022-07-10T11:41:19;4.60;;;1.00;;
58918;SDS011;44704;50.122;19.932;2022-07-10T11:43:51;3.00;;;0.60;;
58918;SDS011;44704;50.122;19.932;2022-07-10T11:46:41;1.00;;;0.50;;
58918;SDS011;44704;50.122;19.932;2022-07-10T11:49:19;2.60;;;0.70;;
58918;SDS011;44704;50.122;19.932;2022-07-10T11:51:48;2.00;;;0.40;;
58918;SDS011;44704;50.122;19.932;2022-07-10T11:54:29;3.10;;;0.50;;
58918;SDS011;44704;50.122;19.932;2022-07-10T11:57:04;3.20;;;0.60;;
58918;SDS011;44704;50.122;19.932;2022-07-10T11:59:39;1.90;;;0.30;;
58918;SDS011;44704;50.122;19.932;2022-07-10T12:02:06;1.20;;;0.40;;
58918;SDS011;44704;50.122;19.932;2022-07-10T12:04:37;3.40;;;0.50;;
58918;SDS011;44704;50.122;19.932;2022-07-10T12:07:04;1.90;;;0.30;;
58918;SDS011;44704;50.122;19.932;2022-07-10T12:09:34;3.40;;;0.60;;
58918;SDS011;44704;50.122;19.932;2022-07-10T12:12:11;1.40;;;0.40;;
58918;SDS011;44704;50.122;19.932;2022-07-10T12:14:55;1.00;;;0.30;;
58918;SDS011;44704;50.122;19.932;2022-07-10T12:17:22;1.70;;;0.40;;
58918;SDS011;44704;50.122;19.932;2022-07-10T12:19:50;1.80;;;0.60;;
58918;SDS011;44704;50.122;19.932;2022-07-10T12:22:19;0.90;;;0.30;;
58918;SDS011;44704;50.122;19.932;2022-07-10T12:24:46;2.60;;;0.50;;
58918;SDS011;44704;50.122;19.932;2022-07-10T12:30:06;3.10;;;0.70;;
58918;SDS011;44704;50.122;19.932;2022-07-10T12:32:38;2.60;;;0.60;;
58918;SDS011;44704;50.122;19.932;2022-07-10T12:35:09;2.00;;;0.50;;
58918;SDS011;44704;50.122;19.932;2022-07-10T12:37:50;3.20;;;0.50;;
58918;SDS011;44704;50.122;19.932;2022-07-10T12:40:29;3.30;;;0.60;;
58918;SDS011;44704;50.122;19.932;2022-07-10T12:43:01;2.40;;;0.30;;
58918;SDS011;44704;50.122;19.932;2022-07-10T12:45:37;1.20;;;0.40;;
58918;SDS011;44704;50.122;19.932;2022-07-10T12:48:07;2.00;;;0.60;;
58918;SDS011;44704;50.122;19.932;2022-07-10T12:50:50;2.10;;;0.70;;
58918;SDS011;44704;50.122;19.932;2022-07-10T12:53:26;2.80;;;0.70;;
58918;SDS011;44704;50.122;19.932;2022-07-10T12:55:56;2.10;;;0.90;;
58918;SDS011;44704;50.122;19.932;2022-07-10T12:58:25;3.10;;;0.70;;
58918;SDS011;44704;50.122;19.932;2022-07-10T13:00:56;2.90;;;0.80;;
58918;SDS011;44704;50.122;19.932;2022-07-10T13:03:27;4.10;;;0.80;;
58918;SDS011;44704;50.122;19.932;2022-07-10T13:05:58;2.40;;;0.90;;
58918;SDS011;44704;50.122;19.932;2022-07-10T13:08:28;4.20;;;0.90;;
58918;SDS011;44704;50.122;19.932;2022-07-10T13:10:56;2.40;;;0.60;;
58918;SDS011;44704;50.122;19.932;2022-07-10T13:13:27;1.60;;;0.50;;
58918;SDS011;44704;50.122;19.932;2022-07-10T13:16:03;1.80;;;0.40;;
58918;SDS011;44704;50.122;19.932;2022-07-10T13:18:35;3.80;;;0.70;;
58918;SDS011;44704;50.122;19.932;2022-07-10T13:21:03;1.70;;;0.80;;
58918;SDS011;44704;50.122;19.932;2022-07-10T13:23:33;1.80;;;0.60;;
58918;SDS011;44704;50.122;19.932;2022-07-10T13:26:05;2.70;;;0.60;;
58918;SDS011;44704;50.122;19.932;2022-07-10T13:28:35;2.10;;;0.70;;
58918;SDS011;44704;50.122;19.932;2022-07-10T13:31:04;3.10;;;0.70;;
58918;SDS011;44704;50.122;19.932;2022-07-10T13:33:35;2.20;;;0.80;;
58918;SDS011;44704;50.122;19.932;2022-07-10T13:36:08;3.00;;;0.70;;
58918;SDS011;44704;50.122;19.932;2022-07-10T13:38:51;1.30;;;0.80;;
58918;SDS011;44704;50.122;19.932;2022-07-10T13:41:19;2.40;;;1.00;;
58918;SDS011;44704;50.122;19.932;2022-07-10T13:43:46;2.10;;;0.90;;
58918;SDS011;44704;50.122;19.932;2022-07-10T13:46:16;5.90;;;0.90;;
58918;SDS011;44704;50.122;19.932;2022-07-10T13:48:43;1.50;;;0.50;;
58918;SDS011;44704;50.122;19.932;2022-07-10T13:51:11;0.80;;;0.50;;
58918;SDS011;44704;50.122;19.932;2022-07-10T13:53:40;3.10;;;0.50;;
58918;SDS011;44704;50.122;19.932;2022-07-10T13:56:11;2.90;;;0.80;;
58918;SDS011;44704;50.122;19.932;2022-07-10T13:58:40;2.00;;;0.40;;
58918;SDS011;44704;50.122;19.932;2022-07-10T14:01:07;1.50;;;0.30;;
58918;SDS011;44704;50.122;19.932;2022-07-10T14:03:34;1.20;;;0.40;;
58918;SDS011;44704;50.122;19.932;2022-07-10T14:06:01;1.00;;;0.40;;
58918;SDS011;44704;50.122;19.932;2022-07-10T14:08:31;2.80;;;0.40;;
58918;SDS011;44704;50.122;19.932;2022-07-10T14:11:12;0.60;;;0.30;;
58918;SDS011;44704;50.122;19.932;2022-07-10T14:13:39;1.90;;;0.30;;
58918;SDS011;44704;50.122;19.932;2022-07-10T14:16:09;2.00;;;0.30;;
58918;SDS011;44704;50.122;19.932;2022-07-10T14:18:36;0.90;;;0.20;;
58918;SDS011;44704;50.122;19.932;2022-07-10T14:21:11;2.10;;;0.30;;
58918;SDS011;44704;50.122;19.932;2022-07-10T14:23:40;1.10;;;0.30;;
58918;SDS011;44704;50.122;19.932;2022-07-10T14:26:10;1.80;;;0.20;;
58918;SDS011;44704;50.122;19.932;2022-07-10T14:28:41;0.40;;;0.20;;
58918;SDS011;44704;50.122;19.932;2022-07-10T14:31:12;0.70;;;0.20;;
58918;SDS011;44704;50.122;19.932;2022-07-10T14:33:39;1.20;;;0.30;;
58918;SDS011;44704;50.122;19.932;2022-07-10T14:36:06;0.20;;;0.20;;
58918;SDS011;44704;50.122;19.932;2022-07-10T14:38:34;1.10;;;0.30;;
58918;SDS011;44704;50.122;19.932;2022-07-10T14:41:01;1.70;;;0.30;;
58918;SDS011;44704;50.122;19.932;2022-07-10T14:43:28;0.80;;;0.20;;
58918;SDS011;44704;50.122;19.932;2022-07-10T14:45:58;1.10;;;0.30;;
58918;SDS011;44704;50.122;19.932;2022-07-10T14:48:27;1.80;;;0.40;;
58918;SDS011;44704;50.122;19.932;2022-07-10T14:50:54;0.50;;;0.40;;
58918;SDS011;44704;50.122;19.932;2022-07-10T14:53:23;2.30;;;0.40;;
58918;SDS011;44704;50.122;19.932;2022-07-10T14:55:51;1.60;;;0.60;;
58918;SDS011;44704;50.122;19.932;2022-07-10T14:58:18;3.40;;;0.30;;
58918;SDS011;44704;50.122;19.932;2022-07-10T15:00:45;1.80;;;0.50;;
58918;SDS011;44704;50.122;19.932;2022-07-10T15:03:12;2.90;;;0.50;;
58918;SDS011;44704;50.122;19.932;2022-07-10T15:05:39;2.10;;;0.50;;
58918;SDS011;44704;50.122;19.932;2022-07-10T15:08:06;1.80;;;0.30;;
58918;SDS011;44704;50.122;19.932;2022-07-10T15:10:33;2.10;;;0.50;;
58918;SDS011;44704;50.122;19.932;2022-07-10T15:13:00;1.30;;;0.50;;
58918;SDS011;44704;50.122;19.932;2022-07-10T15:15:31;0.70;;;0.50;;
58918;SDS011;44704;50.122;19.932;2022-07-10T15:17:59;1.60;;;0.50;;
58918;SDS011;44704;50.122;19.932;2022-07-10T15:20:26;0.50;;;0.30;;
58918;SDS011;44704;50.122;19.932;2022-07-10T15:22:53;1.90;;;0.30;;
58918;SDS011;44704;50.122;19.932;2022-07-10T15:25:20;0.70;;;0.30;;
58918;SDS011;44704;50.122;19.932;2022-07-10T15:27:47;1.50;;;0.40;;
58918;SDS011;44704;50.122;19.932;2022-07-10T15:30:14;0.20;;;0.20;;
58918;SDS011;44704;50.122;19.932;2022-07-10T15:32:41;1.90;;;0.30;;
58918;SDS011;44704;50.122;19.932;2022-07-10T15:35:10;1.90;;;0.40;;
58918;SDS011;44704;50.122;19.932;2022-07-10T15:37:38;1.20;;;0.30;;